DAL644 KJFK-MMUN
Flight info
| Callsign | DAL644 |
|---|---|
| Flight time | N/A |
| Altitude | 32000 |
| Route | WAVEY DCT EMJAY Q167 KALDA Q131 WAALT Y289 ACMED/N0472F340 Y289 BAHAA DCT HIBAC AR17 VKZ DCT LINEY Y262 LULLS Y196 CANOA UB879 NOSAT DCT CUN |
| Aircraft | B739/M-SDE2E3FGHIRWXY/LB1 |
Departure
| Time | 2026-05-09 15:16 |
|---|---|
| Airport | John F. Kennedy International Airport (KJFK) |
Arrival
| Time | N/A |
|---|---|
| Airport | Cancún International Airport (MMUN) |
| Time | Latitude | Longitude | Altitude | Speed | Heading |
|---|---|---|---|---|---|
| 2026-05-09 14:57 | 40.63714 | -73.78018 | 22 ft | 0 kts | 263° |
| 2026-05-09 15:06 | 40.63757 | -73.77913 | 22 ft | 1 kts | 173° |
| 2026-05-09 15:06 | 40.63762 | -73.77913 | 24 ft | 0 kts | 173° |
| 2026-05-09 15:09 | 40.63749 | -73.77911 | 22 ft | 5 kts | 173° |
| 2026-05-09 15:10 | 40.63522 | -73.77701 | 20 ft | 13 kts | 52° |
| 2026-05-09 15:11 | 40.63597 | -73.77637 | 19 ft | 13 kts | 29° |
| 2026-05-09 15:11 | 40.63674 | -73.77580 | 20 ft | 12 kts | 31° |
| 2026-05-09 15:11 | 40.63746 | -73.77521 | 17 ft | 12 kts | 31° |
| 2026-05-09 15:11 | 40.63831 | -73.77457 | 18 ft | 17 kts | 30° |
| 2026-05-09 15:12 | 40.63945 | -73.77368 | 20 ft | 21 kts | 33° |
| 2026-05-09 15:12 | 40.64069 | -73.77268 | 22 ft | 21 kts | 31° |
| 2026-05-09 15:12 | 40.64189 | -73.77172 | 27 ft | 20 kts | 31° |
| 2026-05-09 15:12 | 40.64306 | -73.77081 | 23 ft | 19 kts | 31° |
| 2026-05-09 15:13 | 40.64423 | -73.77004 | 20 ft | 19 kts | 15° |
| 2026-05-09 15:13 | 40.64544 | -73.76959 | 18 ft | 18 kts | 29° |
| 2026-05-09 15:13 | 40.64650 | -73.76877 | 17 ft | 17 kts | 31° |
| 2026-05-09 15:13 | 40.64752 | -73.76797 | 18 ft | 17 kts | 31° |
| 2026-05-09 15:14 | 40.64849 | -73.76721 | 23 ft | 16 kts | 30° |
| 2026-05-09 15:14 | 40.64944 | -73.76647 | 20 ft | 15 kts | 31° |
| 2026-05-09 15:14 | 40.65035 | -73.76576 | 21 ft | 15 kts | 31° |
| 2026-05-09 15:14 | 40.65104 | -73.76489 | 21 ft | 14 kts | 88° |
| 2026-05-09 15:15 | 40.65076 | -73.76419 | 23 ft | 8 kts | 121° |
| 2026-05-09 15:15 | 40.65055 | -73.76373 | 22 ft | 9 kts | 125° |
| 2026-05-09 15:15 | 40.64969 | -73.76396 | 23 ft | 19 kts | 209° |
| 2026-05-09 15:15 | 40.64651 | -73.76641 | 18 ft | 88 kts | 210° |
| 2026-05-09 15:16 | 40.63935 | -73.77197 | 23 ft | 147 kts | 211° |
| 2026-05-09 15:16 | 40.62934 | -73.78009 | 121 ft | 184 kts | 211° |
| 2026-05-09 15:16 | 40.61807 | -73.78886 | 744 ft | 190 kts | 207° |
| 2026-05-09 15:16 | 40.60625 | -73.79703 | 1447 ft | 192 kts | 204° |
| 2026-05-09 15:17 | 40.59402 | -73.80401 | 2188 ft | 191 kts | 201° |
| 2026-05-09 15:17 | 40.58129 | -73.80847 | 2859 ft | 190 kts | 179° |
| 2026-05-09 15:17 | 40.56851 | -73.80338 | 3314 ft | 201 kts | 149° |
| 2026-05-09 15:17 | 40.55990 | -73.78826 | 3744 ft | 219 kts | 115° |
| 2026-05-09 15:18 | 40.55867 | -73.76756 | 4214 ft | 235 kts | 90° |
| 2026-05-09 15:18 | 40.56075 | -73.74560 | 4543 ft | 254 kts | 88° |
| 2026-05-09 15:18 | 40.56319 | -73.72163 | 4742 ft | 279 kts | 88° |
| 2026-05-09 15:18 | 40.56545 | -73.69583 | 5289 ft | 286 kts | 96° |
| 2026-05-09 15:19 | 40.56039 | -73.67152 | 5914 ft | 271 kts | 132° |
| 2026-05-09 15:19 | 40.54659 | -73.65622 | 6614 ft | 257 kts | 161° |
| 2026-05-09 15:19 | 40.53058 | -73.64529 | 7297 ft | 264 kts | 155° |
| 2026-05-09 15:19 | 40.51484 | -73.63246 | 8011 ft | 267 kts | 153° |
| 2026-05-09 15:20 | 40.49911 | -73.61920 | 8702 ft | 270 kts | 153° |
| 2026-05-09 15:20 | 40.46715 | -73.59196 | 10017 ft | 278 kts | 153° |
| 2026-05-09 15:20 | 40.45064 | -73.57783 | 10392 ft | 293 kts | 153° |
| 2026-05-09 15:21 | 40.43286 | -73.56275 | 10553 ft | 314 kts | 153° |
| 2026-05-09 15:21 | 40.41392 | -73.54664 | 10719 ft | 335 kts | 152° |
| 2026-05-09 15:21 | 40.39381 | -73.52951 | 10868 ft | 354 kts | 152° |
| 2026-05-09 15:21 | 40.37990 | -73.51766 | 10955 ft | 366 kts | 152° |
| 2026-05-09 15:22 | 40.35811 | -73.49907 | 11130 ft | 382 kts | 152° |
| 2026-05-09 15:22 | 40.33538 | -73.48040 | 11501 ft | 386 kts | 158° |
| 2026-05-09 15:22 | 40.30146 | -73.47157 | 12166 ft | 374 kts | 191° |
| 2026-05-09 15:22 | 40.28451 | -73.47682 | 12560 ft | 369 kts | 202° |
| 2026-05-09 15:23 | 40.25339 | -73.49474 | 13219 ft | 371 kts | 208° |
| 2026-05-09 15:23 | 40.23761 | -73.50478 | 13525 ft | 375 kts | 209° |
| 2026-05-09 15:23 | 40.21412 | -73.51994 | 14049 ft | 378 kts | 209° |
| 2026-05-09 15:23 | 40.19050 | -73.53520 | 14616 ft | 379 kts | 209° |
| 2026-05-09 15:24 | 40.16673 | -73.55043 | 15118 ft | 382 kts | 210° |
| 2026-05-09 15:24 | 40.14266 | -73.56571 | 15576 ft | 386 kts | 210° |
| 2026-05-09 15:24 | 40.11867 | -73.58081 | 16049 ft | 389 kts | 210° |
| 2026-05-09 15:24 | 40.09422 | -73.59614 | 16484 ft | 392 kts | 210° |
| 2026-05-09 15:25 | 40.06950 | -73.61160 | 16904 ft | 395 kts | 210° |
| 2026-05-09 15:25 | 40.04460 | -73.62712 | 17348 ft | 397 kts | 210° |
| 2026-05-09 15:25 | 40.01958 | -73.64268 | 17787 ft | 400 kts | 210° |
| 2026-05-09 15:26 | 39.96905 | -73.67409 | 18586 ft | 405 kts | 210° |
| 2026-05-09 15:26 | 39.94351 | -73.68995 | 18972 ft | 408 kts | 210° |
| 2026-05-09 15:26 | 39.91778 | -73.70590 | 19392 ft | 410 kts | 210° |
| 2026-05-09 15:26 | 39.89194 | -73.72191 | 19803 ft | 412 kts | 210° |
| 2026-05-09 15:27 | 39.86608 | -73.73794 | 20115 ft | 413 kts | 209° |
| 2026-05-09 15:27 | 39.83984 | -73.75358 | 20341 ft | 416 kts | 210° |
| 2026-05-09 15:27 | 39.81365 | -73.76995 | 20638 ft | 418 kts | 210° |
| 2026-05-09 15:27 | 39.78762 | -73.78693 | 21059 ft | 418 kts | 211° |
| 2026-05-09 15:28 | 39.76106 | -73.80290 | 21439 ft | 421 kts | 209° |
| 2026-05-09 15:28 | 39.73443 | -73.81903 | 21760 ft | 423 kts | 210° |
| 2026-05-09 15:28 | 39.70765 | -73.83530 | 22036 ft | 426 kts | 210° |
| 2026-05-09 15:28 | 39.68084 | -73.85186 | 22354 ft | 428 kts | 210° |
| 2026-05-09 15:29 | 39.65396 | -73.86855 | 22657 ft | 430 kts | 210° |
| 2026-05-09 15:29 | 39.62728 | -73.88508 | 22943 ft | 432 kts | 210° |
| 2026-05-09 15:29 | 39.60011 | -73.90186 | 23223 ft | 434 kts | 210° |
| 2026-05-09 15:29 | 39.57280 | -73.91865 | 23509 ft | 436 kts | 210° |
| 2026-05-09 15:30 | 39.54535 | -73.93547 | 23826 ft | 437 kts | 210° |
| 2026-05-09 15:30 | 39.51785 | -73.95231 | 24098 ft | 439 kts | 210° |
| 2026-05-09 15:30 | 39.49020 | -73.96922 | 24349 ft | 440 kts | 210° |
| 2026-05-09 15:30 | 39.46243 | -73.98620 | 24607 ft | 442 kts | 210° |
| 2026-05-09 15:31 | 39.43455 | -74.00325 | 24873 ft | 444 kts | 210° |
| 2026-05-09 15:31 | 39.40768 | -74.02250 | 25139 ft | 441 kts | 217° |
| 2026-05-09 15:31 | 39.38360 | -74.04654 | 25450 ft | 436 kts | 225° |
| 2026-05-09 15:31 | 39.36077 | -74.07228 | 25835 ft | 435 kts | 224° |
| 2026-05-09 15:32 | 39.33786 | -74.09780 | 26193 ft | 434 kts | 224° |
| 2026-05-09 15:32 | 39.31493 | -74.12310 | 26538 ft | 433 kts | 224° |
| 2026-05-09 15:32 | 39.29202 | -74.14822 | 26939 ft | 431 kts | 224° |
| 2026-05-09 15:32 | 39.26913 | -74.17322 | 27320 ft | 430 kts | 224° |
| 2026-05-09 15:33 | 39.24628 | -74.19813 | 27655 ft | 430 kts | 224° |
| 2026-05-09 15:33 | 39.22345 | -74.22299 | 28041 ft | 428 kts | 224° |
| 2026-05-09 15:33 | 39.20078 | -74.24764 | 28483 ft | 425 kts | 224° |
| 2026-05-09 15:33 | 39.17824 | -74.27215 | 28872 ft | 424 kts | 224° |
| 2026-05-09 15:34 | 39.15573 | -74.29661 | 29202 ft | 423 kts | 224° |
| 2026-05-09 15:34 | 39.13322 | -74.32106 | 29516 ft | 423 kts | 224° |
| 2026-05-09 15:34 | 39.11077 | -74.34541 | 29905 ft | 421 kts | 224° |
| 2026-05-09 15:34 | 39.08847 | -74.36958 | 30301 ft | 418 kts | 224° |
| 2026-05-09 15:35 | 39.06625 | -74.39365 | 30668 ft | 416 kts | 224° |
| 2026-05-09 15:35 | 39.04418 | -74.41754 | 31096 ft | 412 kts | 225° |
| 2026-05-09 15:35 | 39.02224 | -74.44126 | 31443 ft | 411 kts | 225° |
| 2026-05-09 15:35 | 39.00042 | -74.46485 | 31721 ft | 410 kts | 225° |
| 2026-05-09 15:36 | 38.97858 | -74.48845 | 32001 ft | 409 kts | 225° |
| 2026-05-09 15:36 | 38.95676 | -74.51198 | 31977 ft | 410 kts | 225° |
| 2026-05-09 15:36 | 38.91379 | -74.55970 | 32004 ft | 406 kts | 227° |
| 2026-05-09 15:37 | 38.87260 | -74.60854 | 31999 ft | 405 kts | 227° |
| 2026-05-09 15:37 | 38.83117 | -74.65741 | 32002 ft | 404 kts | 227° |
| 2026-05-09 15:38 | 38.78956 | -74.70607 | 32000 ft | 405 kts | 227° |
| 2026-05-09 15:38 | 38.74782 | -74.75451 | 32000 ft | 405 kts | 226° |
| 2026-05-09 15:39 | 38.70422 | -74.80064 | 32000 ft | 407 kts | 224° |
| 2026-05-09 15:39 | 38.66008 | -74.84602 | 32008 ft | 407 kts | 224° |
| 2026-05-09 15:40 | 38.61608 | -74.89158 | 32009 ft | 407 kts | 224° |
| 2026-05-09 15:40 | 38.57216 | -74.93723 | 32008 ft | 407 kts | 224° |
| 2026-05-09 15:41 | 38.52817 | -74.98288 | 32000 ft | 407 kts | 225° |
| 2026-05-09 15:41 | 38.48554 | -75.03004 | 32008 ft | 405 kts | 226° |
| 2026-05-09 15:42 | 38.44211 | -75.07555 | 32016 ft | 408 kts | 223° |
| 2026-05-09 15:42 | 38.39620 | -75.11893 | 32017 ft | 408 kts | 222° |
| 2026-05-09 15:43 | 38.35075 | -75.16168 | 32018 ft | 409 kts | 222° |
| 2026-05-09 15:43 | 38.30508 | -75.20489 | 32019 ft | 409 kts | 222° |
| 2026-05-09 15:44 | 38.25943 | -75.24814 | 32018 ft | 409 kts | 222° |
| 2026-05-09 15:44 | 38.21380 | -75.29133 | 32011 ft | 409 kts | 222° |
| 2026-05-09 15:45 | 38.16812 | -75.33451 | 32012 ft | 409 kts | 222° |
| 2026-05-09 15:45 | 38.12238 | -75.37765 | 32009 ft | 409 kts | 222° |
| 2026-05-09 15:46 | 38.07667 | -75.42072 | 32009 ft | 409 kts | 222° |
| 2026-05-09 15:46 | 38.03059 | -75.46340 | 32009 ft | 411 kts | 220° |
| 2026-05-09 15:47 | 37.98320 | -75.50415 | 32009 ft | 412 kts | 220° |
| 2026-05-09 15:47 | 37.93585 | -75.54472 | 32008 ft | 410 kts | 220° |
| 2026-05-09 15:48 | 37.88916 | -75.58518 | 32004 ft | 409 kts | 220° |
| 2026-05-09 15:48 | 37.84200 | -75.62529 | 32005 ft | 411 kts | 217° |
| 2026-05-09 15:49 | 37.78973 | -75.65635 | 32002 ft | 416 kts | 211° |
| 2026-05-09 15:49 | 37.73687 | -75.68604 | 32004 ft | 416 kts | 211° |
| 2026-05-09 15:50 | 37.68398 | -75.71599 | 32002 ft | 416 kts | 211° |
| 2026-05-09 15:50 | 37.63114 | -75.74601 | 31999 ft | 416 kts | 211° |
| 2026-05-09 15:51 | 37.57829 | -75.77597 | 32000 ft | 416 kts | 211° |
| 2026-05-09 15:51 | 37.52547 | -75.80589 | 32002 ft | 416 kts | 211° |
| 2026-05-09 15:52 | 37.44654 | -75.85048 | 31999 ft | 416 kts | 212° |
| 2026-05-09 15:53 | 37.39378 | -75.88024 | 32000 ft | 415 kts | 212° |
| 2026-05-09 15:53 | 37.34103 | -75.90996 | 31992 ft | 415 kts | 212° |
| 2026-05-09 15:54 | 37.28845 | -75.93953 | 32000 ft | 414 kts | 212° |
| 2026-05-09 15:54 | 37.23622 | -75.96886 | 31985 ft | 413 kts | 212° |
| 2026-05-09 15:55 | 37.18372 | -75.99831 | 31986 ft | 413 kts | 212° |
| 2026-05-09 15:55 | 37.13135 | -76.02759 | 31981 ft | 412 kts | 213° |
| 2026-05-09 15:56 | 37.08087 | -76.06027 | 31989 ft | 406 kts | 217° |
| 2026-05-09 15:56 | 37.03148 | -76.09471 | 31986 ft | 406 kts | 218° |
| 2026-05-09 15:57 | 36.98207 | -76.12910 | 31984 ft | 406 kts | 218° |
| 2026-05-09 15:57 | 36.93250 | -76.16336 | 31981 ft | 407 kts | 218° |
| 2026-05-09 15:58 | 36.88299 | -76.19741 | 31979 ft | 406 kts | 218° |
| 2026-05-09 15:58 | 36.83353 | -76.23135 | 31975 ft | 404 kts | 218° |
| 2026-05-09 15:59 | 36.78431 | -76.26511 | 31990 ft | 403 kts | 218° |
| 2026-05-09 15:59 | 36.73521 | -76.29873 | 32007 ft | 402 kts | 219° |
| 2026-05-09 16:00 | 36.68624 | -76.33224 | 32002 ft | 402 kts | 219° |
| 2026-05-09 16:00 | 36.63727 | -76.36576 | 32004 ft | 401 kts | 219° |
| 2026-05-09 16:01 | 36.58868 | -76.39886 | 31993 ft | 400 kts | 219° |
| 2026-05-09 16:01 | 36.53986 | -76.43189 | 31991 ft | 400 kts | 219° |
| 2026-05-09 16:02 | 36.49128 | -76.46508 | 31984 ft | 398 kts | 219° |
| 2026-05-09 16:02 | 36.41819 | -76.51469 | 31989 ft | 400 kts | 219° |
| 2026-05-09 16:03 | 36.36922 | -76.54783 | 31989 ft | 400 kts | 219° |
| 2026-05-09 16:03 | 36.32029 | -76.58090 | 31990 ft | 400 kts | 219° |
| 2026-05-09 16:04 | 36.27156 | -76.61424 | 31997 ft | 400 kts | 220° |
| 2026-05-09 16:04 | 36.22283 | -76.64710 | 31996 ft | 402 kts | 219° |
| 2026-05-09 16:05 | 36.17374 | -76.67987 | 31986 ft | 401 kts | 219° |
| 2026-05-09 16:05 | 36.12467 | -76.71252 | 32006 ft | 400 kts | 219° |
| 2026-05-09 16:06 | 36.07583 | -76.74537 | 32011 ft | 399 kts | 219° |
| 2026-05-09 16:06 | 36.02708 | -76.77822 | 32012 ft | 399 kts | 219° |
| 2026-05-09 16:07 | 35.97835 | -76.81096 | 32011 ft | 399 kts | 220° |
| 2026-05-09 16:07 | 35.92954 | -76.84360 | 32008 ft | 399 kts | 220° |
| 2026-05-09 16:08 | 35.88038 | -76.87562 | 32011 ft | 401 kts | 218° |
| 2026-05-09 16:08 | 35.83077 | -76.90591 | 32005 ft | 401 kts | 218° |
| 2026-05-09 16:09 | 35.78069 | -76.93638 | 31991 ft | 402 kts | 218° |
| 2026-05-09 16:09 | 35.73059 | -76.96710 | 31993 ft | 402 kts | 218° |
| 2026-05-09 16:10 | 35.68060 | -76.99785 | 31996 ft | 402 kts | 218° |
| 2026-05-09 16:10 | 35.63051 | -77.02853 | 32008 ft | 403 kts | 218° |
| 2026-05-09 16:11 | 35.58869 | -77.05409 | 32007 ft | 403 kts | 218° |
| 2026-05-09 16:11 | 35.53843 | -77.08478 | 32011 ft | 403 kts | 218° |
| 2026-05-09 16:12 | 35.48815 | -77.11547 | 32007 ft | 404 kts | 218° |
| 2026-05-09 16:12 | 35.43782 | -77.14616 | 32007 ft | 404 kts | 218° |
| 2026-05-09 16:13 | 35.38738 | -77.17683 | 31999 ft | 404 kts | 218° |
| 2026-05-09 16:13 | 35.33691 | -77.20754 | 32003 ft | 405 kts | 218° |
| 2026-05-09 16:14 | 35.28669 | -77.23802 | 32001 ft | 405 kts | 218° |
| 2026-05-09 16:14 | 35.23622 | -77.26863 | 31998 ft | 405 kts | 218° |
| 2026-05-09 16:15 | 35.18569 | -77.29925 | 31998 ft | 406 kts | 218° |
| 2026-05-09 16:15 | 35.13499 | -77.32993 | 31998 ft | 406 kts | 217° |
| 2026-05-09 16:16 | 35.08432 | -77.36052 | 32007 ft | 407 kts | 217° |
| 2026-05-09 16:16 | 35.03357 | -77.39108 | 32001 ft | 407 kts | 217° |
| 2026-05-09 16:17 | 34.98284 | -77.42158 | 32010 ft | 406 kts | 217° |
| 2026-05-09 16:17 | 34.93213 | -77.45208 | 32007 ft | 407 kts | 217° |
| 2026-05-09 16:18 | 34.88138 | -77.48257 | 32010 ft | 407 kts | 217° |
| 2026-05-09 16:18 | 34.83044 | -77.51312 | 32007 ft | 408 kts | 217° |
| 2026-05-09 16:19 | 34.77948 | -77.54366 | 32012 ft | 409 kts | 217° |
| 2026-05-09 16:19 | 34.72878 | -77.57398 | 32011 ft | 409 kts | 217° |
| 2026-05-09 16:20 | 34.67767 | -77.60448 | 32011 ft | 409 kts | 217° |
| 2026-05-09 16:20 | 34.62655 | -77.63496 | 32009 ft | 409 kts | 217° |
| 2026-05-09 16:21 | 34.57530 | -77.66526 | 32008 ft | 412 kts | 214° |
| 2026-05-09 16:21 | 34.51911 | -77.68558 | 32009 ft | 430 kts | 203° |
| 2026-05-09 16:22 | 34.46048 | -77.69999 | 31998 ft | 430 kts | 204° |
| 2026-05-09 16:22 | 34.40195 | -77.71463 | 32004 ft | 429 kts | 204° |
| 2026-05-09 16:23 | 34.34351 | -77.72940 | 31997 ft | 429 kts | 204° |
| 2026-05-09 16:23 | 34.28558 | -77.74417 | 32005 ft | 428 kts | 204° |
| 2026-05-09 16:24 | 34.22733 | -77.75901 | 32005 ft | 428 kts | 204° |
| 2026-05-09 16:24 | 34.16905 | -77.77381 | 32002 ft | 428 kts | 204° |
| 2026-05-09 16:25 | 34.11079 | -77.78859 | 31999 ft | 427 kts | 204° |
| 2026-05-09 16:25 | 34.05253 | -77.80331 | 32002 ft | 427 kts | 204° |
| 2026-05-09 16:26 | 33.99429 | -77.81802 | 31999 ft | 428 kts | 204° |
| 2026-05-09 16:26 | 33.93587 | -77.83276 | 32002 ft | 429 kts | 203° |
| 2026-05-09 16:27 | 33.87743 | -77.84747 | 32002 ft | 429 kts | 204° |
| 2026-05-09 16:27 | 33.81905 | -77.86219 | 32003 ft | 429 kts | 203° |
| 2026-05-09 16:28 | 33.76175 | -77.87868 | 32006 ft | 422 kts | 207° |
| 2026-05-09 16:28 | 33.70532 | -77.89821 | 31998 ft | 422 kts | 207° |
| 2026-05-09 16:29 | 33.64880 | -77.91767 | 31997 ft | 423 kts | 207° |
| 2026-05-09 16:29 | 33.59212 | -77.93691 | 31999 ft | 424 kts | 207° |
| 2026-05-09 16:30 | 33.53533 | -77.95615 | 32001 ft | 424 kts | 207° |
| 2026-05-09 16:30 | 33.47848 | -77.97538 | 32001 ft | 424 kts | 207° |
| 2026-05-09 16:31 | 33.42155 | -77.99461 | 32002 ft | 425 kts | 207° |
| 2026-05-09 16:31 | 33.36496 | -78.01370 | 32001 ft | 426 kts | 207° |
| 2026-05-09 16:32 | 33.31717 | -78.02983 | 32000 ft | 426 kts | 207° |
| 2026-05-09 16:32 | 33.25068 | -78.05222 | 32000 ft | 427 kts | 206° |
| 2026-05-09 16:33 | 33.19341 | -78.07148 | 32000 ft | 428 kts | 206° |
| 2026-05-09 16:33 | 33.13587 | -78.09080 | 32000 ft | 429 kts | 206° |
| 2026-05-09 16:34 | 33.07840 | -78.11006 | 31997 ft | 429 kts | 206° |
| 2026-05-09 16:34 | 33.02127 | -78.12918 | 32002 ft | 429 kts | 206° |
| 2026-05-09 16:35 | 32.96366 | -78.14846 | 32000 ft | 430 kts | 206° |
| 2026-05-09 16:35 | 32.90596 | -78.16773 | 32001 ft | 431 kts | 206° |
| 2026-05-09 16:36 | 32.78999 | -78.20637 | 32007 ft | 433 kts | 206° |
| 2026-05-09 16:37 | 32.73185 | -78.22570 | 32012 ft | 435 kts | 206° |
| 2026-05-09 16:37 | 32.67349 | -78.24502 | 32008 ft | 436 kts | 205° |
| 2026-05-09 16:38 | 32.61496 | -78.26430 | 32009 ft | 437 kts | 205° |
| 2026-05-09 16:38 | 32.55631 | -78.28360 | 32009 ft | 437 kts | 205° |
| 2026-05-09 16:39 | 32.49756 | -78.30293 | 32001 ft | 438 kts | 205° |
| 2026-05-09 16:39 | 32.43881 | -78.32222 | 31995 ft | 438 kts | 205° |
| 2026-05-09 16:40 | 32.38038 | -78.34140 | 32003 ft | 439 kts | 205° |
| 2026-05-09 16:42 | 32.14471 | -78.41875 | 32001 ft | 440 kts | 205° |
| 2026-05-09 16:42 | 32.08573 | -78.43806 | 32003 ft | 440 kts | 205° |
| 2026-05-09 16:43 | 32.02677 | -78.45734 | 31998 ft | 440 kts | 205° |
| 2026-05-09 16:43 | 31.96783 | -78.47659 | 31998 ft | 439 kts | 205° |
| 2026-05-09 16:44 | 31.90894 | -78.49581 | 32004 ft | 439 kts | 205° |
| 2026-05-09 16:44 | 31.84996 | -78.51503 | 31999 ft | 439 kts | 205° |
| 2026-05-09 16:45 | 31.79147 | -78.53404 | 31999 ft | 439 kts | 205° |
| 2026-05-09 16:45 | 31.73256 | -78.55320 | 32001 ft | 439 kts | 205° |
| 2026-05-09 16:46 | 31.67361 | -78.57234 | 31999 ft | 440 kts | 205° |
| 2026-05-09 16:46 | 31.61456 | -78.59148 | 32001 ft | 440 kts | 205° |
| 2026-05-09 16:47 | 31.55545 | -78.61061 | 31998 ft | 440 kts | 205° |
| 2026-05-09 16:47 | 31.49653 | -78.63024 | 32002 ft | 439 kts | 205° |
| 2026-05-09 16:48 | 31.43789 | -78.65052 | 32001 ft | 439 kts | 206° |
| 2026-05-09 16:48 | 31.37923 | -78.67079 | 32005 ft | 439 kts | 205° |
| 2026-05-09 16:49 | 31.32087 | -78.69081 | 32011 ft | 439 kts | 205° |
| 2026-05-09 16:50 | 31.23282 | -78.72090 | 32008 ft | 439 kts | 205° |
| 2026-05-09 16:50 | 31.17411 | -78.74095 | 32011 ft | 440 kts | 205° |
| 2026-05-09 16:51 | 31.11530 | -78.76100 | 32014 ft | 440 kts | 205° |
| 2026-05-09 16:51 | 31.05650 | -78.78100 | 32020 ft | 440 kts | 205° |
| 2026-05-09 16:52 | 30.99773 | -78.80098 | 32014 ft | 440 kts | 205° |
| 2026-05-09 16:52 | 30.93889 | -78.82095 | 32016 ft | 440 kts | 205° |
| 2026-05-09 16:53 | 30.88005 | -78.84089 | 32020 ft | 440 kts | 205° |
| 2026-05-09 16:53 | 30.82158 | -78.86069 | 32019 ft | 441 kts | 205° |
| 2026-05-09 16:54 | 30.76263 | -78.88063 | 32024 ft | 442 kts | 205° |
| 2026-05-09 16:54 | 30.70358 | -78.90056 | 32016 ft | 442 kts | 205° |
| 2026-05-09 16:55 | 30.64447 | -78.92051 | 32022 ft | 442 kts | 205° |
| 2026-05-09 16:55 | 30.58531 | -78.94044 | 32017 ft | 443 kts | 205° |
| 2026-05-09 16:56 | 30.52605 | -78.96037 | 32016 ft | 444 kts | 205° |
| 2026-05-09 16:56 | 30.46666 | -78.98033 | 32021 ft | 444 kts | 205° |
| 2026-05-09 16:57 | 30.40767 | -79.00101 | 32016 ft | 440 kts | 208° |
| 2026-05-09 16:57 | 30.35052 | -79.02568 | 32032 ft | 437 kts | 209° |
| 2026-05-09 16:58 | 30.29405 | -79.05089 | 32017 ft | 438 kts | 209° |
| 2026-05-09 16:58 | 30.23708 | -79.07604 | 32009 ft | 438 kts | 209° |
| 2026-05-09 16:59 | 30.18007 | -79.10093 | 32007 ft | 437 kts | 209° |
| 2026-05-09 16:59 | 30.12299 | -79.12573 | 32011 ft | 437 kts | 209° |
| 2026-05-09 17:00 | 30.06635 | -79.15033 | 32010 ft | 438 kts | 209° |
| 2026-05-09 17:00 | 30.00932 | -79.17505 | 32009 ft | 438 kts | 209° |
| 2026-05-09 17:01 | 29.95218 | -79.19983 | 32009 ft | 439 kts | 209° |
| 2026-05-09 17:01 | 29.90460 | -79.22042 | 32019 ft | 440 kts | 208° |
| 2026-05-09 17:02 | 29.84712 | -79.24526 | 32021 ft | 441 kts | 208° |
| 2026-05-09 17:02 | 29.78947 | -79.27014 | 32020 ft | 443 kts | 208° |
| 2026-05-09 17:03 | 29.73170 | -79.29505 | 32010 ft | 444 kts | 208° |
| 2026-05-09 17:05 | 29.50041 | -79.39446 | 31999 ft | 444 kts | 208° |
| 2026-05-09 17:05 | 29.44254 | -79.41925 | 32000 ft | 444 kts | 208° |
| 2026-05-09 17:06 | 29.38468 | -79.44401 | 31996 ft | 443 kts | 208° |
| 2026-05-09 17:06 | 29.32687 | -79.46872 | 31992 ft | 444 kts | 208° |
| 2026-05-09 17:07 | 29.26903 | -79.49342 | 31992 ft | 443 kts | 208° |
| 2026-05-09 17:07 | 29.21110 | -79.51814 | 31989 ft | 444 kts | 208° |
| 2026-05-09 17:08 | 29.15355 | -79.54265 | 31986 ft | 444 kts | 208° |
| 2026-05-09 17:08 | 29.06467 | -79.57446 | 31996 ft | 456 kts | 197° |
| 2026-05-09 17:09 | 29.00179 | -79.58533 | 31982 ft | 457 kts | 197° |
| 2026-05-09 17:09 | 28.93888 | -79.59618 | 31974 ft | 457 kts | 197° |
| 2026-05-09 17:10 | 28.87601 | -79.60732 | 31971 ft | 457 kts | 197° |
| 2026-05-09 17:10 | 28.81309 | -79.61864 | 31970 ft | 458 kts | 197° |
| 2026-05-09 17:11 | 28.75010 | -79.62997 | 31973 ft | 458 kts | 197° |
| 2026-05-09 17:11 | 28.68709 | -79.64128 | 31977 ft | 458 kts | 197° |
| 2026-05-09 17:12 | 28.62401 | -79.65261 | 31968 ft | 459 kts | 197° |
| 2026-05-09 17:12 | 28.56098 | -79.66390 | 31969 ft | 459 kts | 197° |
| 2026-05-09 17:13 | 28.49776 | -79.67522 | 31971 ft | 460 kts | 197° |
| 2026-05-09 17:13 | 28.43487 | -79.68647 | 31963 ft | 461 kts | 197° |
| 2026-05-09 17:14 | 28.37145 | -79.69778 | 31974 ft | 462 kts | 197° |
| 2026-05-09 17:14 | 28.30793 | -79.70910 | 31972 ft | 462 kts | 197° |
| 2026-05-09 17:15 | 28.24431 | -79.72043 | 31972 ft | 463 kts | 197° |
| 2026-05-09 17:15 | 28.18057 | -79.73177 | 31977 ft | 463 kts | 197° |
| 2026-05-09 17:17 | 27.92636 | -79.77684 | 31997 ft | 461 kts | 197° |
| 2026-05-09 17:18 | 27.86296 | -79.78806 | 32001 ft | 461 kts | 196° |
| 2026-05-09 17:18 | 27.79948 | -79.79926 | 32000 ft | 462 kts | 196° |
| 2026-05-09 17:19 | 27.73601 | -79.81045 | 32000 ft | 462 kts | 196° |
| 2026-05-09 17:19 | 27.67252 | -79.82165 | 31996 ft | 461 kts | 196° |
| 2026-05-09 17:20 | 27.60943 | -79.83274 | 32002 ft | 462 kts | 196° |
| 2026-05-09 17:20 | 27.54599 | -79.84388 | 32010 ft | 461 kts | 196° |
| 2026-05-09 17:21 | 27.48249 | -79.85501 | 32011 ft | 462 kts | 196° |
| 2026-05-09 17:21 | 27.41894 | -79.86617 | 32009 ft | 462 kts | 196° |
| 2026-05-09 17:22 | 27.35534 | -79.87732 | 32008 ft | 462 kts | 196° |
| 2026-05-09 17:22 | 27.29170 | -79.88846 | 32010 ft | 463 kts | 196° |
| 2026-05-09 17:23 | 27.22836 | -79.89952 | 32009 ft | 463 kts | 195° |
| 2026-05-09 17:23 | 27.16458 | -79.91066 | 32010 ft | 464 kts | 195° |
| 2026-05-09 17:25 | 26.97292 | -79.94403 | 32009 ft | 465 kts | 195° |
| 2026-05-09 17:25 | 26.90890 | -79.95516 | 32008 ft | 465 kts | 195° |
| 2026-05-09 17:26 | 26.84480 | -79.96627 | 32020 ft | 466 kts | 195° |
| 2026-05-09 17:26 | 26.78077 | -79.97737 | 32022 ft | 466 kts | 194° |
| 2026-05-09 17:27 | 26.71667 | -79.98847 | 32024 ft | 467 kts | 194° |
| 2026-05-09 17:27 | 26.65246 | -79.99957 | 32028 ft | 467 kts | 194° |
| 2026-05-09 17:28 | 26.58861 | -80.01061 | 32031 ft | 467 kts | 194° |
| 2026-05-09 17:28 | 26.52432 | -80.02169 | 32027 ft | 467 kts | 194° |
| 2026-05-09 17:29 | 26.45961 | -80.03284 | 32028 ft | 467 kts | 194° |
| 2026-05-09 17:29 | 26.39530 | -80.04392 | 32028 ft | 468 kts | 194° |
| 2026-05-09 17:30 | 26.33137 | -80.05491 | 32028 ft | 468 kts | 194° |
| 2026-05-09 17:30 | 26.26697 | -80.06597 | 32025 ft | 468 kts | 194° |
| 2026-05-09 17:31 | 26.20249 | -80.07703 | 32019 ft | 468 kts | 194° |
| 2026-05-09 17:32 | 26.04167 | -80.10458 | 32015 ft | 467 kts | 194° |
| 2026-05-09 17:33 | 25.97737 | -80.11556 | 32020 ft | 467 kts | 194° |
| 2026-05-09 17:33 | 25.91312 | -80.12653 | 32020 ft | 467 kts | 194° |
| 2026-05-09 17:34 | 25.84930 | -80.13742 | 32020 ft | 467 kts | 194° |
| 2026-05-09 17:35 | 25.69530 | -80.23983 | 32030 ft | 440 kts | 238° |
| 2026-05-09 17:35 | 25.67790 | -80.26779 | 32027 ft | 440 kts | 238° |
| 2026-05-09 17:36 | 25.64293 | -80.32369 | 32020 ft | 442 kts | 238° |
| 2026-05-09 17:36 | 25.60745 | -80.37941 | 32029 ft | 443 kts | 237° |
| 2026-05-09 17:37 | 25.57165 | -80.43519 | 32025 ft | 444 kts | 237° |
| 2026-05-09 17:37 | 25.53570 | -80.49101 | 32029 ft | 445 kts | 237° |
| 2026-05-09 17:38 | 25.49991 | -80.54655 | 32027 ft | 446 kts | 237° |
| 2026-05-09 17:39 | 25.44583 | -80.63033 | 32029 ft | 446 kts | 237° |
| 2026-05-09 17:39 | 25.40969 | -80.68627 | 32028 ft | 446 kts | 237° |
| 2026-05-09 17:40 | 25.37356 | -80.74210 | 32025 ft | 446 kts | 237° |
| 2026-05-09 17:40 | 25.33743 | -80.79788 | 32030 ft | 446 kts | 237° |
| 2026-05-09 17:41 | 25.30131 | -80.85360 | 32038 ft | 446 kts | 237° |
| 2026-05-09 17:41 | 25.26544 | -80.90946 | 32036 ft | 445 kts | 238° |
| 2026-05-09 17:42 | 25.23162 | -80.96628 | 32036 ft | 445 kts | 239° |
| 2026-05-09 17:42 | 25.19772 | -81.02353 | 32040 ft | 445 kts | 239° |
| 2026-05-09 17:43 | 25.16348 | -81.08054 | 32035 ft | 446 kts | 239° |
| 2026-05-09 17:43 | 25.12914 | -81.13771 | 32038 ft | 446 kts | 239° |
| 2026-05-09 17:44 | 25.09493 | -81.19477 | 32037 ft | 446 kts | 239° |
| 2026-05-09 17:44 | 25.06068 | -81.25184 | 32035 ft | 446 kts | 239° |
| 2026-05-09 17:45 | 25.02641 | -81.30888 | 32036 ft | 446 kts | 239° |
| 2026-05-09 17:45 | 24.99209 | -81.36591 | 32039 ft | 446 kts | 238° |
| 2026-05-09 17:46 | 24.95792 | -81.42262 | 32037 ft | 446 kts | 238° |
| 2026-05-09 17:46 | 24.92354 | -81.47964 | 32035 ft | 447 kts | 238° |
| 2026-05-09 17:47 | 24.88606 | -81.53433 | 32027 ft | 451 kts | 227° |
| 2026-05-09 17:47 | 24.84067 | -81.58194 | 32036 ft | 452 kts | 226° |
| 2026-05-09 17:48 | 24.80262 | -81.62158 | 32039 ft | 452 kts | 226° |
| 2026-05-09 17:48 | 24.74977 | -81.67724 | 32037 ft | 453 kts | 226° |
| 2026-05-09 17:49 | 24.70436 | -81.72530 | 32039 ft | 453 kts | 226° |
| 2026-05-09 17:49 | 24.65889 | -81.77339 | 32036 ft | 454 kts | 226° |
| 2026-05-09 17:50 | 24.62105 | -81.81337 | 32038 ft | 454 kts | 226° |
| 2026-05-09 17:50 | 24.55261 | -81.88557 | 32039 ft | 455 kts | 226° |
| 2026-05-09 17:51 | 24.50697 | -81.93366 | 32036 ft | 455 kts | 227° |
| 2026-05-09 17:51 | 24.46842 | -81.98815 | 32037 ft | 450 kts | 243° |
| 2026-05-09 17:52 | 24.44150 | -82.04958 | 32036 ft | 450 kts | 246° |
| 2026-05-09 17:52 | 24.41480 | -82.11179 | 32036 ft | 450 kts | 246° |
| 2026-05-09 17:53 | 24.38782 | -82.17383 | 32037 ft | 451 kts | 245° |
| 2026-05-09 17:53 | 24.36061 | -82.23586 | 32030 ft | 451 kts | 245° |
| 2026-05-09 17:54 | 24.33335 | -82.29788 | 32027 ft | 451 kts | 245° |
| 2026-05-09 17:54 | 24.30608 | -82.35989 | 32028 ft | 451 kts | 245° |
| 2026-05-09 17:55 | 24.27875 | -82.42195 | 32028 ft | 451 kts | 245° |
| 2026-05-09 17:55 | 24.25141 | -82.48387 | 32029 ft | 451 kts | 245° |
| 2026-05-09 17:56 | 24.22409 | -82.54570 | 32027 ft | 450 kts | 245° |
| 2026-05-09 17:57 | 24.18318 | -82.63815 | 32026 ft | 449 kts | 245° |
| 2026-05-09 17:57 | 24.15593 | -82.69971 | 32031 ft | 449 kts | 245° |
| 2026-05-09 17:58 | 24.12863 | -82.76120 | 32026 ft | 449 kts | 245° |
| 2026-05-09 17:58 | 24.10149 | -82.82225 | 32026 ft | 448 kts | 245° |
| 2026-05-09 17:59 | 24.07426 | -82.88347 | 32031 ft | 447 kts | 245° |
| 2026-05-09 17:59 | 24.04698 | -82.94469 | 32029 ft | 447 kts | 245° |
| 2026-05-09 18:00 | 24.01972 | -83.00583 | 32028 ft | 446 kts | 245° |
| 2026-05-09 18:00 | 23.99037 | -83.06572 | 32017 ft | 448 kts | 236° |
| 2026-05-09 18:01 | 23.95326 | -83.12003 | 32028 ft | 450 kts | 234° |
| 2026-05-09 18:01 | 23.91549 | -83.17465 | 32032 ft | 451 kts | 234° |
| 2026-05-09 18:02 | 23.87782 | -83.22969 | 32033 ft | 453 kts | 235° |
| 2026-05-09 18:02 | 23.84011 | -83.28503 | 32028 ft | 454 kts | 235° |
| 2026-05-09 18:03 | 23.80235 | -83.34043 | 32027 ft | 455 kts | 235° |
| 2026-05-09 18:03 | 23.76451 | -83.39589 | 32027 ft | 455 kts | 235° |
| 2026-05-09 18:04 | 23.72667 | -83.45126 | 32028 ft | 455 kts | 235° |
| 2026-05-09 18:04 | 23.68888 | -83.50653 | 32026 ft | 454 kts | 235° |
| 2026-05-09 18:05 | 23.65105 | -83.56181 | 32019 ft | 454 kts | 235° |
| 2026-05-09 18:05 | 23.61322 | -83.61695 | 32013 ft | 454 kts | 234° |
| 2026-05-09 18:06 | 23.57538 | -83.67199 | 32019 ft | 453 kts | 234° |
| 2026-05-09 18:06 | 23.53787 | -83.72651 | 32018 ft | 452 kts | 234° |
| 2026-05-09 18:07 | 23.50015 | -83.78129 | 32019 ft | 452 kts | 234° |
| 2026-05-09 18:07 | 23.46247 | -83.83598 | 32017 ft | 451 kts | 234° |
| 2026-05-09 18:08 | 23.42480 | -83.89059 | 32018 ft | 451 kts | 234° |
| 2026-05-09 18:08 | 23.38707 | -83.94523 | 32021 ft | 450 kts | 234° |
| 2026-05-09 18:09 | 23.34938 | -83.99973 | 32019 ft | 451 kts | 234° |
| 2026-05-09 18:09 | 23.31161 | -84.05434 | 32021 ft | 452 kts | 234° |
| 2026-05-09 18:10 | 23.27374 | -84.10901 | 32009 ft | 453 kts | 234° |
| 2026-05-09 18:10 | 23.23603 | -84.16335 | 32008 ft | 453 kts | 234° |
| 2026-05-09 18:11 | 23.19805 | -84.21807 | 32012 ft | 454 kts | 234° |
| 2026-05-09 18:11 | 23.15992 | -84.27294 | 32007 ft | 455 kts | 234° |
| 2026-05-09 18:12 | 23.12172 | -84.32786 | 32010 ft | 456 kts | 234° |
| 2026-05-09 18:12 | 23.08343 | -84.38283 | 32008 ft | 456 kts | 234° |
| 2026-05-09 18:13 | 23.04509 | -84.43785 | 32009 ft | 457 kts | 234° |
| 2026-05-09 18:13 | 23.00672 | -84.49283 | 32001 ft | 457 kts | 234° |
| 2026-05-09 18:14 | 22.96830 | -84.54782 | 31999 ft | 457 kts | 234° |
| 2026-05-09 18:14 | 22.93011 | -84.60238 | 31998 ft | 457 kts | 234° |
| 2026-05-09 18:15 | 22.89165 | -84.65728 | 32001 ft | 456 kts | 234° |
| 2026-05-09 18:15 | 22.85328 | -84.71204 | 32001 ft | 456 kts | 234° |
| 2026-05-09 18:16 | 22.81487 | -84.76674 | 31999 ft | 456 kts | 234° |
| 2026-05-09 18:16 | 22.77643 | -84.82143 | 31999 ft | 456 kts | 234° |
| 2026-05-09 18:17 | 22.73800 | -84.87609 | 32003 ft | 456 kts | 234° |
| 2026-05-09 18:17 | 22.69947 | -84.93083 | 31995 ft | 457 kts | 234° |
| 2026-05-09 18:18 | 22.66119 | -84.98515 | 31992 ft | 457 kts | 234° |
| 2026-05-09 18:18 | 22.62262 | -85.03985 | 31991 ft | 457 kts | 234° |
| 2026-05-09 18:19 | 22.58412 | -85.09460 | 31989 ft | 457 kts | 234° |
| 2026-05-09 18:19 | 22.52675 | -85.17703 | 31990 ft | 457 kts | 234° |
| 2026-05-09 18:20 | 22.48846 | -85.23200 | 31989 ft | 457 kts | 234° |
| 2026-05-09 18:20 | 22.45010 | -85.28693 | 31986 ft | 458 kts | 234° |
| 2026-05-09 18:21 | 22.41165 | -85.34192 | 31981 ft | 459 kts | 234° |
| 2026-05-09 18:21 | 22.37317 | -85.39688 | 31975 ft | 459 kts | 234° |
| 2026-05-09 18:22 | 22.33468 | -85.45187 | 31985 ft | 459 kts | 234° |
| 2026-05-09 18:22 | 22.29616 | -85.50683 | 31978 ft | 459 kts | 234° |
| 2026-05-09 18:23 | 22.25757 | -85.56179 | 31972 ft | 460 kts | 234° |
| 2026-05-09 18:23 | 22.21902 | -85.61677 | 31962 ft | 453 kts | 234° |
| 2026-05-09 18:24 | 22.20039 | -85.64342 | 31951 ft | 436 kts | 234° |
| 2026-05-09 18:24 | 22.18249 | -85.66902 | 31951 ft | 419 kts | 234° |
| 2026-05-09 18:24 | 22.16530 | -85.69364 | 31950 ft | 403 kts | 234° |
| 2026-05-09 18:25 | 22.13304 | -85.73979 | 31944 ft | 373 kts | 234° |
| 2026-05-09 18:25 | 22.11769 | -85.76170 | 31929 ft | 359 kts | 234° |
| 2026-05-09 18:25 | 22.10294 | -85.78279 | 31952 ft | 348 kts | 234° |
| 2026-05-09 18:26 | 22.07345 | -85.82498 | 31982 ft | 359 kts | 234° |
| 2026-05-09 18:26 | 22.04271 | -85.86886 | 31976 ft | 372 kts | 234° |
| 2026-05-09 18:27 | 22.01138 | -85.91351 | 31969 ft | 374 kts | 234° |
| 2026-05-09 18:27 | 21.98010 | -85.95806 | 31951 ft | 368 kts | 234° |
| 2026-05-09 18:28 | 21.94698 | -85.99926 | 31970 ft | 365 kts | 224° |
| 2026-05-09 18:28 | 21.90807 | -86.03509 | 31972 ft | 370 kts | 222° |
| 2026-05-09 18:29 | 21.86897 | -86.07085 | 31971 ft | 373 kts | 223° |
| 2026-05-09 18:29 | 21.82967 | -86.10744 | 31968 ft | 374 kts | 223° |
| 2026-05-09 18:30 | 21.79036 | -86.14434 | 31962 ft | 375 kts | 223° |
| 2026-05-09 18:30 | 21.75112 | -86.18119 | 31958 ft | 373 kts | 223° |
| 2026-05-09 18:31 | 21.71211 | -86.21783 | 31952 ft | 371 kts | 223° |
| 2026-05-09 18:31 | 21.67338 | -86.25416 | 31947 ft | 368 kts | 223° |
| 2026-05-09 18:32 | 21.63491 | -86.29021 | 31945 ft | 365 kts | 223° |
| 2026-05-09 18:32 | 21.59671 | -86.32607 | 31951 ft | 364 kts | 223° |
| 2026-05-09 18:33 | 21.55888 | -86.36156 | 31958 ft | 364 kts | 223° |
| 2026-05-09 18:33 | 21.52032 | -86.39701 | 31954 ft | 366 kts | 218° |
| 2026-05-09 18:34 | 21.47779 | -86.42752 | 31961 ft | 369 kts | 214° |
| 2026-05-09 18:34 | 21.43451 | -86.45743 | 31958 ft | 371 kts | 215° |
| 2026-05-09 18:35 | 21.39139 | -86.48805 | 31957 ft | 372 kts | 216° |
| 2026-05-09 18:35 | 21.34818 | -86.51895 | 31955 ft | 374 kts | 216° |
| 2026-05-09 18:36 | 21.30481 | -86.54996 | 31956 ft | 375 kts | 216° |
| 2026-05-09 18:36 | 21.26141 | -86.58097 | 31951 ft | 375 kts | 216° |
| 2026-05-09 18:37 | 21.21795 | -86.61201 | 31952 ft | 374 kts | 216° |
| 2026-05-09 18:37 | 21.18197 | -86.63770 | 31950 ft | 373 kts | 216° |
| 2026-05-09 18:38 | 21.13190 | -86.67340 | 31946 ft | 370 kts | 216° |
| 2026-05-09 18:38 | 21.11151 | -86.69001 | 31921 ft | 366 kts | 230° |
| 2026-05-09 18:38 | 21.10140 | -86.70469 | 31966 ft | 361 kts | 243° |
| 2026-05-09 18:40 | 21.15390 | -86.87266 | 31955 ft | 369 kts | 302° |
| 2026-05-09 18:40 | 21.16834 | -86.89555 | 31957 ft | 371 kts | 302° |
| 2026-05-09 18:41 | 21.19713 | -86.94172 | 31960 ft | 374 kts | 302° |
| 2026-05-09 18:41 | 21.22610 | -86.98821 | 31953 ft | 376 kts | 302° |
| 2026-05-09 18:42 | 21.25491 | -87.03483 | 31930 ft | 373 kts | 297° |
| 2026-05-09 18:42 | 21.26348 | -87.06066 | 31963 ft | 366 kts | 276° |
| 2026-05-09 18:42 | 21.26343 | -87.08734 | 31942 ft | 363 kts | 259° |
| 2026-05-09 18:42 | 21.25565 | -87.11289 | 31961 ft | 361 kts | 243° |
| 2026-05-09 18:43 | 21.24175 | -87.13526 | 31955 ft | 362 kts | 227° |
| 2026-05-09 18:43 | 21.22192 | -87.15189 | 31933 ft | 365 kts | 206° |
| 2026-05-09 18:43 | 21.19725 | -87.15790 | 31963 ft | 370 kts | 179° |
| 2026-05-09 18:43 | 21.17195 | -87.15147 | 31958 ft | 383 kts | 153° |
| 2026-05-09 18:44 | 21.15096 | -87.13340 | 31970 ft | 395 kts | 128° |
| 2026-05-09 18:44 | 21.13852 | -87.10696 | 31960 ft | 402 kts | 105° |
| 2026-05-09 18:44 | 21.13077 | -87.07813 | 31957 ft | 404 kts | 107° |
| 2026-05-09 18:44 | 21.12606 | -87.04861 | 31971 ft | 401 kts | 96° |
| 2026-05-09 18:45 | 21.12101 | -87.01941 | 31915 ft | 398 kts | 111° |
| 2026-05-09 18:45 | 21.10952 | -86.99273 | 31975 ft | 393 kts | 122° |
| 2026-05-09 18:45 | 21.09486 | -86.96811 | 31954 ft | 391 kts | 126° |
| 2026-05-09 18:46 | 21.06381 | -86.92018 | 31947 ft | 392 kts | 126° |
| 2026-05-09 18:46 | 21.03326 | -86.87180 | 31954 ft | 394 kts | 126° |
| 2026-05-09 18:47 | 21.00258 | -86.82284 | 31962 ft | 401 kts | 126° |
| 2026-05-09 18:47 | 20.97159 | -86.77340 | 31933 ft | 398 kts | 126° |
| 2026-05-09 18:48 | 20.94094 | -86.72452 | 31947 ft | 394 kts | 126° |
| 2026-05-09 18:48 | 20.91043 | -86.67594 | 31949 ft | 392 kts | 126° |
| 2026-05-09 18:49 | 20.87997 | -86.62749 | 31956 ft | 393 kts | 126° |
| 2026-05-09 18:49 | 20.84942 | -86.57896 | 31964 ft | 394 kts | 126° |
| 2026-05-09 18:50 | 20.81869 | -86.53027 | 31959 ft | 396 kts | 126° |
| 2026-05-09 18:50 | 20.78804 | -86.48174 | 31955 ft | 397 kts | 126° |
| 2026-05-09 18:51 | 20.75703 | -86.43274 | 31957 ft | 398 kts | 126° |
| 2026-05-09 18:51 | 20.72592 | -86.38375 | 31952 ft | 399 kts | 126° |
| 2026-05-09 18:52 | 20.69478 | -86.33472 | 31955 ft | 399 kts | 126° |
| 2026-05-09 18:52 | 20.66361 | -86.28568 | 31951 ft | 399 kts | 125° |
| 2026-05-09 18:53 | 20.63248 | -86.23678 | 31951 ft | 398 kts | 125° |
| 2026-05-09 18:53 | 20.60138 | -86.18808 | 31953 ft | 396 kts | 126° |
| 2026-05-09 18:54 | 20.57040 | -86.13960 | 31952 ft | 394 kts | 126° |
| 2026-05-09 18:54 | 20.53953 | -86.09135 | 31951 ft | 393 kts | 126° |
| 2026-05-09 18:55 | 20.50873 | -86.04326 | 31953 ft | 392 kts | 126° |
| 2026-05-09 18:55 | 20.47818 | -85.99560 | 31954 ft | 392 kts | 126° |
| 2026-05-09 18:56 | 20.44743 | -85.94768 | 31957 ft | 392 kts | 125° |
| 2026-05-09 18:56 | 20.41659 | -85.89968 | 31954 ft | 392 kts | 126° |
| 2026-05-09 18:57 | 20.38564 | -85.85163 | 31956 ft | 393 kts | 126° |
| 2026-05-09 18:57 | 20.35462 | -85.80349 | 31954 ft | 394 kts | 126° |
| 2026-05-09 18:58 | 20.32354 | -85.75527 | 31956 ft | 395 kts | 126° |
| 2026-05-09 18:58 | 20.29238 | -85.70691 | 31955 ft | 395 kts | 126° |
| 2026-05-09 18:59 | 20.26127 | -85.65863 | 31953 ft | 395 kts | 126° |
| 2026-05-09 18:59 | 20.23012 | -85.61024 | 31956 ft | 396 kts | 126° |
| 2026-05-09 19:00 | 20.19899 | -85.56193 | 31950 ft | 395 kts | 126° |
| 2026-05-09 19:00 | 20.15263 | -85.49003 | 31951 ft | 394 kts | 126° |
| 2026-05-09 19:01 | 20.12165 | -85.44201 | 31953 ft | 393 kts | 126° |
| 2026-05-09 19:01 | 20.09076 | -85.39413 | 31954 ft | 392 kts | 126° |
| 2026-05-09 19:02 | 20.05987 | -85.34623 | 31957 ft | 392 kts | 126° |
| 2026-05-09 19:02 | 20.02893 | -85.29829 | 31955 ft | 393 kts | 126° |
| 2026-05-09 19:03 | 19.99802 | -85.25041 | 31956 ft | 393 kts | 126° |
| 2026-05-09 19:03 | 19.96699 | -85.20257 | 31957 ft | 392 kts | 125° |
| 2026-05-09 19:04 | 19.93601 | -85.15523 | 31960 ft | 392 kts | 126° |
| 2026-05-09 19:04 | 19.90478 | -85.10769 | 31964 ft | 392 kts | 126° |
| 2026-05-09 19:05 | 19.87352 | -85.06025 | 31964 ft | 391 kts | 126° |
| 2026-05-09 19:05 | 19.84229 | -85.01294 | 31958 ft | 391 kts | 126° |
| 2026-05-09 19:06 | 19.81103 | -84.96562 | 31964 ft | 391 kts | 126° |
| 2026-05-09 19:06 | 19.77983 | -84.91842 | 31961 ft | 390 kts | 126° |
| 2026-05-09 19:07 | 19.74870 | -84.87132 | 31968 ft | 389 kts | 126° |
| 2026-05-09 19:07 | 19.71753 | -84.82426 | 31957 ft | 389 kts | 126° |
| 2026-05-09 19:08 | 19.68637 | -84.77732 | 31969 ft | 389 kts | 126° |
| 2026-05-09 19:08 | 19.65523 | -84.73041 | 31963 ft | 389 kts | 126° |
| 2026-05-09 19:09 | 19.62410 | -84.68355 | 31952 ft | 389 kts | 126° |
| 2026-05-09 19:09 | 19.59296 | -84.63668 | 31945 ft | 389 kts | 126° |
| 2026-05-09 19:10 | 19.56209 | -84.59017 | 31945 ft | 388 kts | 126° |
| 2026-05-09 19:10 | 19.53100 | -84.54338 | 31947 ft | 388 kts | 126° |
| 2026-05-09 19:11 | 19.49984 | -84.49648 | 31946 ft | 389 kts | 126° |
| 2026-05-09 19:11 | 19.46864 | -84.44957 | 31947 ft | 390 kts | 126° |
| 2026-05-09 19:12 | 19.43737 | -84.40261 | 31948 ft | 390 kts | 126° |
| 2026-05-09 19:12 | 19.40602 | -84.35553 | 31945 ft | 391 kts | 126° |
| 2026-05-09 19:13 | 19.37464 | -84.30839 | 31944 ft | 392 kts | 126° |
| 2026-05-09 19:13 | 19.34325 | -84.26129 | 31945 ft | 391 kts | 126° |
| 2026-05-09 19:14 | 19.31208 | -84.21452 | 31945 ft | 391 kts | 126° |
| 2026-05-09 19:14 | 19.28069 | -84.16745 | 31929 ft | 391 kts | 126° |
| 2026-05-09 19:15 | 19.24940 | -84.12052 | 31937 ft | 390 kts | 126° |
| 2026-05-09 19:15 | 19.21812 | -84.07371 | 31941 ft | 389 kts | 125° |
| 2026-05-09 19:16 | 19.18685 | -84.02702 | 31929 ft | 389 kts | 126° |
| 2026-05-09 19:16 | 19.15553 | -83.98035 | 31940 ft | 389 kts | 126° |
| 2026-05-09 19:17 | 19.12422 | -83.93382 | 31926 ft | 388 kts | 126° |
| 2026-05-09 19:17 | 19.09289 | -83.88738 | 31946 ft | 387 kts | 126° |
| 2026-05-09 19:18 | 19.06155 | -83.84104 | 31948 ft | 387 kts | 126° |
| 2026-05-09 19:18 | 19.03037 | -83.79499 | 31945 ft | 388 kts | 126° |
| 2026-05-09 19:19 | 18.99896 | -83.74867 | 31950 ft | 388 kts | 125° |
| 2026-05-09 19:19 | 18.96753 | -83.70234 | 31945 ft | 388 kts | 126° |
| 2026-05-09 19:20 | 18.93607 | -83.65604 | 31945 ft | 388 kts | 126° |
| 2026-05-09 19:20 | 18.90458 | -83.60975 | 31945 ft | 388 kts | 126° |
| 2026-05-09 19:21 | 18.87307 | -83.56352 | 31946 ft | 388 kts | 126° |
| 2026-05-09 19:21 | 18.84153 | -83.51732 | 31930 ft | 387 kts | 126° |
| 2026-05-09 19:22 | 18.81005 | -83.47121 | 31945 ft | 387 kts | 126° |
| 2026-05-09 19:22 | 18.77852 | -83.42511 | 31946 ft | 387 kts | 126° |
| 2026-05-09 19:23 | 18.74700 | -83.37907 | 31946 ft | 387 kts | 126° |
| 2026-05-09 19:23 | 18.71550 | -83.33309 | 31952 ft | 386 kts | 126° |
| 2026-05-09 19:24 | 18.68402 | -83.28721 | 31951 ft | 386 kts | 126° |
| 2026-05-09 19:24 | 18.65270 | -83.24160 | 31957 ft | 386 kts | 126° |
| 2026-05-09 19:25 | 18.62120 | -83.19571 | 31955 ft | 386 kts | 126° |
| 2026-05-09 19:25 | 18.58966 | -83.14982 | 31955 ft | 386 kts | 126° |
| 2026-05-09 19:26 | 18.55810 | -83.10393 | 31954 ft | 387 kts | 126° |
| 2026-05-09 19:26 | 18.53186 | -83.06576 | 31951 ft | 387 kts | 125° |
| 2026-05-09 19:27 | 18.50024 | -83.01995 | 31955 ft | 386 kts | 126° |
| 2026-05-09 19:27 | 18.46856 | -82.97413 | 31959 ft | 387 kts | 126° |
| 2026-05-09 19:28 | 18.43684 | -82.92830 | 31953 ft | 387 kts | 126° |
| 2026-05-09 19:28 | 18.40508 | -82.88251 | 31953 ft | 387 kts | 126° |
| 2026-05-09 19:29 | 18.37338 | -82.83678 | 31956 ft | 386 kts | 126° |
| 2026-05-09 19:29 | 18.34186 | -82.79137 | 31952 ft | 386 kts | 126° |
| 2026-05-09 19:30 | 18.31016 | -82.74569 | 31954 ft | 386 kts | 126° |
| 2026-05-09 19:30 | 18.27848 | -82.70014 | 31958 ft | 386 kts | 126° |
| 2026-05-09 19:31 | 18.24672 | -82.65462 | 31951 ft | 386 kts | 126° |
| 2026-05-09 19:31 | 18.21499 | -82.60921 | 31953 ft | 385 kts | 125° |
| 2026-05-09 19:32 | 18.18346 | -82.56418 | 31954 ft | 385 kts | 126° |
| 2026-05-09 19:32 | 18.15171 | -82.51895 | 31957 ft | 385 kts | 126° |
| 2026-05-09 19:33 | 18.11991 | -82.47372 | 31952 ft | 385 kts | 126° |
| 2026-05-09 19:33 | 18.08805 | -82.42842 | 31956 ft | 385 kts | 126° |
| 2026-05-09 19:34 | 18.05622 | -82.38316 | 31955 ft | 385 kts | 126° |
| 2026-05-09 19:34 | 18.02434 | -82.33791 | 31957 ft | 385 kts | 126° |
| 2026-05-09 19:35 | 17.99257 | -82.29296 | 31955 ft | 386 kts | 126° |
| 2026-05-09 19:35 | 17.96057 | -82.24776 | 31953 ft | 385 kts | 126° |
| 2026-05-09 19:36 | 17.92853 | -82.20253 | 31955 ft | 385 kts | 126° |
| 2026-05-09 19:36 | 17.89649 | -82.15732 | 31952 ft | 385 kts | 126° |
| 2026-05-09 19:37 | 17.86450 | -82.11217 | 31953 ft | 385 kts | 126° |
| 2026-05-09 19:37 | 17.83256 | -82.06711 | 31954 ft | 385 kts | 126° |
| 2026-05-09 19:38 | 17.80062 | -82.02203 | 31953 ft | 384 kts | 126° |
| 2026-05-09 19:38 | 17.76872 | -81.97705 | 31954 ft | 384 kts | 126° |
| 2026-05-09 19:39 | 17.73702 | -81.93235 | 31953 ft | 384 kts | 126° |
| 2026-05-09 19:39 | 17.70509 | -81.88738 | 31957 ft | 385 kts | 126° |
| 2026-05-09 19:40 | 17.67307 | -81.84238 | 31956 ft | 385 kts | 126° |
| 2026-05-09 19:40 | 17.64100 | -81.79743 | 31953 ft | 385 kts | 126° |
| 2026-05-09 19:41 | 17.60894 | -81.75256 | 31952 ft | 384 kts | 126° |
| 2026-05-09 19:41 | 17.57691 | -81.70769 | 31955 ft | 384 kts | 126° |
| 2026-05-09 19:42 | 17.54487 | -81.66286 | 31950 ft | 384 kts | 126° |
| 2026-05-09 19:42 | 17.51282 | -81.61817 | 31955 ft | 383 kts | 126° |
| 2026-05-09 19:43 | 17.48078 | -81.57351 | 31957 ft | 384 kts | 126° |
| 2026-05-09 19:43 | 17.44869 | -81.52881 | 31951 ft | 383 kts | 126° |
| 2026-05-09 19:44 | 17.41675 | -81.48449 | 31952 ft | 383 kts | 126° |
| 2026-05-09 19:44 | 17.38468 | -81.44002 | 31942 ft | 382 kts | 126° |
| 2026-05-09 19:45 | 17.35265 | -81.39565 | 31945 ft | 382 kts | 126° |
| 2026-05-09 19:45 | 17.32066 | -81.35135 | 31946 ft | 381 kts | 126° |
| 2026-05-09 19:46 | 17.28861 | -81.30703 | 31954 ft | 381 kts | 126° |
| 2026-05-09 19:46 | 17.25662 | -81.26273 | 31957 ft | 382 kts | 126° |
| 2026-05-09 19:47 | 17.22463 | -81.21841 | 31954 ft | 382 kts | 126° |
| 2026-05-09 19:47 | 17.19260 | -81.17414 | 31954 ft | 382 kts | 126° |
| 2026-05-09 19:48 | 17.16051 | -81.12988 | 31961 ft | 382 kts | 126° |
| 2026-05-09 19:48 | 17.12843 | -81.08562 | 31965 ft | 382 kts | 126° |
| 2026-05-09 19:49 | 17.09632 | -81.04134 | 31960 ft | 382 kts | 126° |
| 2026-05-09 19:49 | 17.06417 | -80.99704 | 31962 ft | 382 kts | 126° |
| 2026-05-09 19:50 | 17.03207 | -80.95288 | 31962 ft | 381 kts | 126° |
| 2026-05-09 19:50 | 16.99995 | -80.90882 | 31953 ft | 381 kts | 126° |
| 2026-05-09 19:51 | 16.96787 | -80.86485 | 31953 ft | 380 kts | 126° |
| 2026-05-09 19:51 | 16.93604 | -80.82122 | 31953 ft | 380 kts | 126° |
| 2026-05-09 19:52 | 16.90405 | -80.77739 | 31953 ft | 379 kts | 126° |
| 2026-05-09 19:52 | 16.87206 | -80.73359 | 31953 ft | 379 kts | 126° |
| 2026-05-09 19:53 | 16.84008 | -80.68979 | 31954 ft | 379 kts | 126° |
| 2026-05-09 19:53 | 16.80810 | -80.64610 | 31956 ft | 379 kts | 126° |
| 2026-05-09 19:54 | 16.77608 | -80.60237 | 31953 ft | 379 kts | 126° |
| 2026-05-09 19:54 | 16.74405 | -80.55864 | 31956 ft | 379 kts | 126° |
| 2026-05-09 19:55 | 16.71201 | -80.51487 | 31952 ft | 380 kts | 126° |
| 2026-05-09 19:56 | 16.66408 | -80.44956 | 31952 ft | 379 kts | 126° |
| 2026-05-09 19:56 | 16.63195 | -80.40591 | 31953 ft | 379 kts | 126° |
| 2026-05-09 19:57 | 16.59988 | -80.36233 | 31951 ft | 378 kts | 126° |
| 2026-05-09 19:57 | 16.56783 | -80.31886 | 31931 ft | 378 kts | 126° |
| 2026-05-09 19:58 | 16.53574 | -80.27541 | 31932 ft | 377 kts | 126° |
| 2026-05-09 19:58 | 16.50371 | -80.23214 | 31939 ft | 377 kts | 126° |
| 2026-05-09 19:59 | 16.47171 | -80.18892 | 31934 ft | 376 kts | 126° |
| 2026-05-09 19:59 | 16.43974 | -80.14581 | 31931 ft | 376 kts | 126° |
| 2026-05-09 20:00 | 16.40779 | -80.10275 | 31940 ft | 376 kts | 126° |
| 2026-05-09 20:00 | 16.37581 | -80.05969 | 31933 ft | 375 kts | 126° |
| 2026-05-09 20:01 | 16.34383 | -80.01667 | 31935 ft | 376 kts | 126° |
| 2026-05-09 20:01 | 16.31203 | -79.97388 | 31930 ft | 376 kts | 126° |
| 2026-05-09 20:02 | 16.28000 | -79.93076 | 31922 ft | 377 kts | 126° |
| 2026-05-09 20:02 | 16.24787 | -79.88759 | 31930 ft | 377 kts | 126° |
| 2026-05-09 20:03 | 16.19969 | -79.82298 | 31932 ft | 377 kts | 126° |
| 2026-05-09 20:03 | 16.16756 | -79.77994 | 31926 ft | 376 kts | 126° |
| 2026-05-09 20:04 | 16.13552 | -79.73703 | 31926 ft | 375 kts | 126° |
| 2026-05-09 20:04 | 16.10363 | -79.69426 | 31927 ft | 374 kts | 126° |
| 2026-05-09 20:05 | 16.07179 | -79.65149 | 31939 ft | 374 kts | 126° |
| 2026-05-09 20:05 | 16.03992 | -79.60864 | 31938 ft | 375 kts | 126° |